createdAt,value
2017-09-17T00:00:37.522Z,15.70
2017-09-17T00:03:05.153Z,15.70
2017-09-17T00:05:32.795Z,15.60
2017-09-17T00:08:01.227Z,15.60
2017-09-17T00:10:28.888Z,15.60
2017-09-17T00:12:56.654Z,15.60
2017-09-17T00:15:24.300Z,15.60
2017-09-17T00:17:51.908Z,15.60
2017-09-17T00:20:21.098Z,15.50
2017-09-17T00:22:49.578Z,15.50
2017-09-17T00:25:18.772Z,15.40
2017-09-17T00:27:47.180Z,15.50
2017-09-17T00:30:15.583Z,15.40
2017-09-17T00:32:43.220Z,15.40
2017-09-17T00:35:11.661Z,15.40
2017-09-17T00:37:39.276Z,15.30
2017-09-17T00:40:06.888Z,15.40
2017-09-17T00:42:34.541Z,15.30
2017-09-17T00:45:02.148Z,15.30
2017-09-17T00:47:30.574Z,15.30
2017-09-17T00:49:58.201Z,15.20
2017-09-17T00:52:25.840Z,15.30
2017-09-17T00:54:54.266Z,15.20
2017-09-17T00:57:21.876Z,15.20
2017-09-17T00:59:50.302Z,15.20
2017-09-17T01:02:17.922Z,15.10
2017-09-17T01:04:46.341Z,15.10
2017-09-17T01:07:13.961Z,15.10
2017-09-17T01:09:42.501Z,15.10
2017-09-17T01:12:10.112Z,15.00
2017-09-17T01:14:38.566Z,15.00
2017-09-17T01:17:06.213Z,15.00
2017-09-17T01:19:33.833Z,15.00
2017-09-17T01:22:01.504Z,14.90
2017-09-17T01:24:29.153Z,14.90
2017-09-17T01:26:56.793Z,14.90
2017-09-17T01:29:25.223Z,14.80
2017-09-17T01:31:52.858Z,14.80
2017-09-17T01:34:20.655Z,14.80
2017-09-17T01:36:48.343Z,14.80
2017-09-17T01:39:15.964Z,14.70
2017-09-17T01:41:43.599Z,14.70
2017-09-17T01:44:11.281Z,14.70
2017-09-17T01:46:38.899Z,14.70
2017-09-17T01:49:06.630Z,14.60
2017-09-17T01:51:34.302Z,14.60
2017-09-17T01:54:01.933Z,14.60
2017-09-17T01:56:29.574Z,14.60
2017-09-17T01:58:57.242Z,14.50
2017-09-17T02:01:25.043Z,14.50
2017-09-17T02:03:52.682Z,14.50
2017-09-17T02:06:20.364Z,14.50
2017-09-17T02:08:47.985Z,14.50
2017-09-17T02:11:15.615Z,14.40
2017-09-17T02:13:43.366Z,14.40
2017-09-17T02:16:11.004Z,14.40
2017-09-17T02:18:38.773Z,14.40
2017-09-17T02:21:06.388Z,14.40
2017-09-17T02:23:34.917Z,14.30
2017-09-17T02:26:02.680Z,14.20
2017-09-17T02:28:30.311Z,14.30
2017-09-17T02:30:57.931Z,14.30
2017-09-17T02:33:25.579Z,14.20
2017-09-17T02:35:53.246Z,14.20
2017-09-17T02:38:20.912Z,14.20
2017-09-17T02:40:48.654Z,14.10
2017-09-17T02:43:16.289Z,14.10
2017-09-17T02:45:43.937Z,14.10
2017-09-17T02:48:11.567Z,14.00
2017-09-17T02:50:39.207Z,14.00
2017-09-17T02:53:06.856Z,14.00
2017-09-17T02:55:34.522Z,14.00
2017-09-17T02:58:02.200Z,14.00
2017-09-17T03:00:29.964Z,14.00
2017-09-17T03:02:57.590Z,13.90
2017-09-17T03:05:25.290Z,13.90
2017-09-17T03:07:53.137Z,13.90
2017-09-17T03:10:20.756Z,13.90
2017-09-17T03:12:48.480Z,13.80
2017-09-17T03:15:16.122Z,13.80
2017-09-17T03:17:43.740Z,13.80
2017-09-17T03:20:12.183Z,13.70
2017-09-17T03:22:39.840Z,13.70
2017-09-17T03:25:07.485Z,13.70
2017-09-17T03:27:35.250Z,13.70
2017-09-17T03:30:02.922Z,13.60
2017-09-17T03:32:30.571Z,13.60
2017-09-17T03:34:58.181Z,13.60
2017-09-17T03:37:26.635Z,13.60
2017-09-17T03:39:54.381Z,13.50
2017-09-17T03:42:23.975Z,13.50
2017-09-17T03:44:51.640Z,13.50
2017-09-17T03:47:19.275Z,13.50
2017-09-17T03:49:46.921Z,13.50
2017-09-17T03:52:15.314Z,13.40
2017-09-17T03:54:43.001Z,13.40
2017-09-17T03:57:10.638Z,13.40
2017-09-17T03:59:39.066Z,13.40
2017-09-17T04:02:06.818Z,13.40
2017-09-17T04:04:34.432Z,13.40
2017-09-17T04:07:02.884Z,13.40
2017-09-17T04:09:30.622Z,13.30
2017-09-17T04:11:58.310Z,13.40
2017-09-17T04:14:26.056Z,13.40
2017-09-17T04:16:53.686Z,13.40
2017-09-17T04:19:21.332Z,13.40
2017-09-17T04:21:49.051Z,13.40
2017-09-17T04:24:16.668Z,13.40
2017-09-17T04:26:44.316Z,13.30
2017-09-17T04:29:12.019Z,13.30
2017-09-17T04:31:39.660Z,13.30
2017-09-17T04:34:07.288Z,13.30
2017-09-17T04:36:35.711Z,13.30
2017-09-17T04:39:03.339Z,13.20
2017-09-17T04:41:31.000Z,13.30
2017-09-17T04:43:59.447Z,13.30
2017-09-17T04:46:27.080Z,13.20
2017-09-17T04:48:54.703Z,13.20
2017-09-17T04:51:23.136Z,13.20
2017-09-17T04:53:50.746Z,13.20
2017-09-17T04:56:18.474Z,13.20
2017-09-17T04:58:46.103Z,13.20
2017-09-17T05:01:13.713Z,13.20
2017-09-17T05:03:42.146Z,13.20
2017-09-17T05:06:09.915Z,13.10
2017-09-17T05:08:37.577Z,13.20
2017-09-17T05:11:05.205Z,13.10
2017-09-17T05:13:32.872Z,13.10
2017-09-17T05:16:00.564Z,13.10
2017-09-17T05:18:28.208Z,13.10
2017-09-17T05:20:55.831Z,13.10
2017-09-17T05:23:24.292Z,13.10
2017-09-17T05:25:51.919Z,13.10
2017-09-17T05:28:19.540Z,13.10
2017-09-17T05:30:48.139Z,13.10
2017-09-17T05:33:15.770Z,13.10
2017-09-17T05:35:44.231Z,13.10
2017-09-17T05:38:11.870Z,13.10
2017-09-17T05:40:39.502Z,13.10
2017-09-17T05:43:07.300Z,13.10
2017-09-17T05:45:34.925Z,13.10
2017-09-17T05:48:02.579Z,13.10
2017-09-17T05:50:30.971Z,13.10
2017-09-17T05:52:58.677Z,13.10
2017-09-17T05:55:26.566Z,13.10
2017-09-17T05:57:54.220Z,13.20
2017-09-17T06:00:21.857Z,13.20
2017-09-17T06:02:49.464Z,13.20
2017-09-17T06:05:17.873Z,13.20
2017-09-17T06:07:45.488Z,13.20
2017-09-17T06:10:13.153Z,13.20
2017-09-17T06:12:41.547Z,13.30
2017-09-17T06:15:09.931Z,13.30
2017-09-17T06:17:38.458Z,13.30
2017-09-17T06:20:06.222Z,13.30
2017-09-17T06:22:33.892Z,13.40
2017-09-17T06:25:01.522Z,13.40
2017-09-17T06:27:29.334Z,13.40
2017-09-17T06:29:57.207Z,13.40
2017-09-17T06:32:24.941Z,13.50
2017-09-17T06:34:52.596Z,13.50
2017-09-17T06:37:20.287Z,13.50
2017-09-17T06:39:48.755Z,13.60
2017-09-17T06:42:16.408Z,13.60
2017-09-17T06:44:44.032Z,13.60
2017-09-17T06:47:11.682Z,13.70
2017-09-17T06:49:40.069Z,13.80
2017-09-17T06:52:08.454Z,13.90
2017-09-17T06:54:36.101Z,13.90
2017-09-17T06:57:04.522Z,14.10
2017-09-17T06:59:32.168Z,14.00
2017-09-17T07:01:59.866Z,14.20
2017-09-17T07:04:27.535Z,14.20
2017-09-17T07:06:55.184Z,14.30
2017-09-17T07:09:22.800Z,14.30
2017-09-17T07:11:50.543Z,14.40
2017-09-17T07:14:18.983Z,14.50
2017-09-17T07:16:46.745Z,14.40
2017-09-17T07:19:14.373Z,14.50
2017-09-17T07:21:42.002Z,14.50
2017-09-17T07:24:09.750Z,14.50
2017-09-17T07:26:37.370Z,14.60
2017-09-17T07:29:05.070Z,14.60
2017-09-17T07:31:32.969Z,14.60
2017-09-17T07:34:01.422Z,14.60
2017-09-17T07:36:29.070Z,14.60
2017-09-17T07:38:56.699Z,14.60
2017-09-17T07:41:24.384Z,14.70
2017-09-17T07:43:52.149Z,14.70
2017-09-17T07:46:19.764Z,14.70
2017-09-17T07:48:48.193Z,14.80
2017-09-17T07:51:15.834Z,14.70
2017-09-17T07:53:43.622Z,14.80
2017-09-17T07:56:11.293Z,14.90
2017-09-17T07:58:38.926Z,14.90
2017-09-17T08:01:06.579Z,15.00
2017-09-17T08:03:34.244Z,15.00
2017-09-17T08:06:01.920Z,15.10
2017-09-17T08:08:29.541Z,15.10
2017-09-17T08:10:58.076Z,15.20
2017-09-17T08:13:25.832Z,15.20
2017-09-17T08:15:53.616Z,15.30
2017-09-17T08:18:21.476Z,15.30
2017-09-17T08:20:49.115Z,15.40
2017-09-17T08:23:16.816Z,15.40
2017-09-17T08:25:45.268Z,15.60
2017-09-17T08:28:12.903Z,15.50
2017-09-17T08:30:40.568Z,15.60
2017-09-17T08:33:08.271Z,15.70
2017-09-17T08:35:37.370Z,15.70
2017-09-17T08:38:07.237Z,15.80
2017-09-17T08:40:36.415Z,15.80
2017-09-17T08:43:06.918Z,16.00
2017-09-17T08:45:36.806Z,15.90
2017-09-17T08:48:06.262Z,16.00
2017-09-17T08:50:36.157Z,16.10
2017-09-17T08:53:04.102Z,16.20
2017-09-17T08:55:32.694Z,16.30
2017-09-17T08:58:00.486Z,16.20
2017-09-17T09:00:29.050Z,16.40
2017-09-17T09:02:56.809Z,16.40
2017-09-17T09:05:24.624Z,16.50
2017-09-17T09:07:52.752Z,16.60
2017-09-17T09:10:21.370Z,16.70
2017-09-17T09:12:49.119Z,16.70
2017-09-17T09:15:17.635Z,16.90
2017-09-17T09:17:45.426Z,16.80
2017-09-17T09:20:13.203Z,17.00
2017-09-17T09:22:41.137Z,17.10
2017-09-17T09:25:09.604Z,17.30
2017-09-17T09:27:37.398Z,17.20
2017-09-17T09:30:05.065Z,17.50
2017-09-17T09:32:32.695Z,17.70
2017-09-17T09:35:00.346Z,17.90
2017-09-17T09:37:27.994Z,18.00
2017-09-17T09:39:56.523Z,18.40
2017-09-17T09:42:24.149Z,18.30
2017-09-17T09:44:51.760Z,18.50
2017-09-17T09:47:19.442Z,18.70
2017-09-17T09:49:47.062Z,18.80
2017-09-17T09:52:14.709Z,19.00
2017-09-17T09:54:42.329Z,19.10
2017-09-17T09:57:10.037Z,19.30
2017-09-17T09:59:37.670Z,19.40
2017-09-17T10:02:05.295Z,19.50
2017-09-17T10:04:32.973Z,19.50
2017-09-17T10:07:00.641Z,19.60
2017-09-17T10:09:29.082Z,19.70
2017-09-17T10:11:57.486Z,19.80
2017-09-17T10:14:25.150Z,19.70
2017-09-17T10:16:52.801Z,19.80
2017-09-17T10:19:20.449Z,19.80
2017-09-17T10:21:48.102Z,19.80
2017-09-17T10:24:15.759Z,19.90
2017-09-17T10:26:43.413Z,19.90
2017-09-17T10:29:11.047Z,20.00
2017-09-17T10:31:39.494Z,20.10
2017-09-17T10:34:07.139Z,20.00
2017-09-17T10:36:34.752Z,20.10
2017-09-17T10:39:02.409Z,20.20
2017-09-17T10:41:30.044Z,20.30
2017-09-17T10:43:57.711Z,20.50
2017-09-17T10:46:25.353Z,20.50
2017-09-17T10:48:53.001Z,20.50
2017-09-17T10:51:20.648Z,20.60
2017-09-17T10:53:48.283Z,20.60
2017-09-17T10:56:16.739Z,20.60
2017-09-17T10:58:44.381Z,20.60
2017-09-17T11:01:12.025Z,20.60
2017-09-17T11:03:39.687Z,20.70
2017-09-17T11:06:08.095Z,20.70
2017-09-17T11:08:35.773Z,20.60
2017-09-17T11:11:03.441Z,20.70
2017-09-17T11:13:31.834Z,20.70
2017-09-17T11:15:59.492Z,20.70
2017-09-17T11:18:27.124Z,20.80
2017-09-17T11:20:54.799Z,20.80
2017-09-17T11:23:23.228Z,20.80
2017-09-17T11:25:50.854Z,20.80
2017-09-17T11:28:19.265Z,20.90
2017-09-17T11:30:46.898Z,20.90
2017-09-17T11:33:14.549Z,21.00
2017-09-17T11:35:42.928Z,21.10
2017-09-17T11:38:11.372Z,21.10
2017-09-17T11:40:40.504Z,21.10
2017-09-17T11:43:08.906Z,21.20
2017-09-17T11:45:36.551Z,21.10
2017-09-17T11:48:04.182Z,21.20
2017-09-17T11:50:31.828Z,21.30
2017-09-17T11:52:59.466Z,21.30
2017-09-17T11:55:27.123Z,21.30
2017-09-17T11:57:54.754Z,21.40
2017-09-17T12:00:24.014Z,21.50
2017-09-17T12:02:51.866Z,21.40
2017-09-17T12:05:19.512Z,21.50
2017-09-17T12:07:47.172Z,21.50
2017-09-17T12:10:14.788Z,21.60
2017-09-17T12:12:43.182Z,21.60
2017-09-17T12:15:11.620Z,21.60
2017-09-17T12:17:39.269Z,21.60
2017-09-17T12:20:06.943Z,21.70
2017-09-17T12:22:35.336Z,21.80
2017-09-17T12:25:02.953Z,21.80
2017-09-17T12:27:30.623Z,21.90
2017-09-17T12:29:58.777Z,21.90
2017-09-17T12:32:26.481Z,22.00
2017-09-17T12:34:54.120Z,22.10
2017-09-17T12:37:21.793Z,22.20
2017-09-17T12:39:49.449Z,22.40
2017-09-17T12:42:17.066Z,22.40
2017-09-17T12:44:45.511Z,22.60
2017-09-17T12:47:13.141Z,22.50
2017-09-17T12:49:40.786Z,22.60
2017-09-17T12:52:08.428Z,22.70
2017-09-17T12:54:36.831Z,22.90
2017-09-17T12:57:04.546Z,22.90
2017-09-17T12:59:33.792Z,23.00
2017-09-17T13:02:01.446Z,22.90
2017-09-17T13:04:29.068Z,23.00
2017-09-17T13:06:56.773Z,23.10
2017-09-17T13:09:24.465Z,23.00
2017-09-17T13:11:52.143Z,23.10
2017-09-17T13:14:19.873Z,23.10
2017-09-17T13:16:47.642Z,23.10
2017-09-17T13:19:15.286Z,23.20
2017-09-17T13:21:42.929Z,23.20
2017-09-17T13:24:11.362Z,23.20
2017-09-17T13:26:39.015Z,23.20
2017-09-17T13:29:06.688Z,23.20
2017-09-17T13:31:34.361Z,23.30
2017-09-17T13:34:02.042Z,23.30
2017-09-17T13:36:29.780Z,23.30
2017-09-17T13:38:57.447Z,23.40
2017-09-17T13:41:25.090Z,23.40
2017-09-17T13:43:52.758Z,23.40
2017-09-17T13:46:20.412Z,23.50
2017-09-17T13:48:48.083Z,23.50
2017-09-17T13:51:15.725Z,23.50
2017-09-17T13:53:43.393Z,23.50
2017-09-17T13:56:11.046Z,23.40
2017-09-17T13:58:38.687Z,23.50
2017-09-17T14:01:25.198Z,23.50
2017-09-17T14:03:53.334Z,23.50
2017-09-17T14:06:24.707Z,23.40
2017-09-17T14:11:58.210Z,23.20
2017-09-17T14:14:25.846Z,23.10
2017-09-17T14:16:53.533Z,23.00
2017-09-17T14:19:21.167Z,22.90
2017-09-17T14:21:48.838Z,22.90
2017-09-17T14:24:16.491Z,22.90
2017-09-17T14:26:44.157Z,22.80
2017-09-17T14:29:11.813Z,22.70
2017-09-17T14:31:40.237Z,22.40
2017-09-17T14:34:08.663Z,22.30
2017-09-17T14:36:36.334Z,22.30
2017-09-17T14:39:04.028Z,22.20
2017-09-17T14:41:31.661Z,22.20
2017-09-17T14:43:59.317Z,22.20
2017-09-17T14:46:26.978Z,22.10
2017-09-17T14:48:54.644Z,22.10
2017-09-17T14:51:22.304Z,22.00
2017-09-17T14:53:49.958Z,21.90
2017-09-17T14:56:18.376Z,21.80
2017-09-17T14:58:46.020Z,21.70
2017-09-17T15:01:13.673Z,21.70
2017-09-17T15:03:41.314Z,21.70
2017-09-17T15:06:08.974Z,21.60
2017-09-17T15:08:36.646Z,21.60
2017-09-17T15:11:04.300Z,21.50
2017-09-17T15:13:31.915Z,21.40
2017-09-17T15:15:59.614Z,21.40
2017-09-17T15:18:27.236Z,21.30
2017-09-17T15:20:55.967Z,21.10
2017-09-17T15:23:23.615Z,21.10
2017-09-17T15:25:51.250Z,21.10
2017-09-17T15:28:18.905Z,21.20
2017-09-17T15:30:47.325Z,21.20
2017-09-17T15:33:14.990Z,21.10
2017-09-17T15:35:42.612Z,21.10
2017-09-17T15:38:11.067Z,21.00
2017-09-17T15:40:38.713Z,20.90
2017-09-17T15:43:06.342Z,20.90
2017-09-17T15:45:34.050Z,20.90
2017-09-17T15:48:01.695Z,20.80
2017-09-17T15:50:29.350Z,20.80
2017-09-17T15:52:57.034Z,20.70
2017-09-17T15:55:24.667Z,20.70
2017-09-17T15:57:52.365Z,20.70
2017-09-17T16:00:20.010Z,20.70
2017-09-17T16:02:47.707Z,20.60
2017-09-17T16:05:16.108Z,20.40
2017-09-17T16:07:43.794Z,20.30
2017-09-17T16:10:11.423Z,20.20
2017-09-17T16:12:39.812Z,20.00
2017-09-17T16:15:07.485Z,20.00
2017-09-17T16:17:35.109Z,20.00
2017-09-17T16:20:02.778Z,20.00
2017-09-17T16:22:31.224Z,20.00
2017-09-17T16:24:59.618Z,20.00
2017-09-17T16:27:27.272Z,19.90
2017-09-17T16:29:54.897Z,19.90
2017-09-17T16:32:23.074Z,19.90
2017-09-17T16:34:50.714Z,19.90
2017-09-17T16:37:18.387Z,19.90
2017-09-17T16:39:46.518Z,19.80
2017-09-17T16:42:14.230Z,19.80
2017-09-17T16:44:41.898Z,19.70
2017-09-17T16:47:09.552Z,19.70
2017-09-17T16:49:37.248Z,19.60
2017-09-17T16:52:05.064Z,19.50
2017-09-17T16:54:32.866Z,19.50
2017-09-17T16:57:00.645Z,19.40
2017-09-17T16:59:28.469Z,19.30
2017-09-17T17:01:56.224Z,19.30
2017-09-17T17:04:24.052Z,19.20
2017-09-17T17:06:52.261Z,19.20
2017-09-17T17:09:20.303Z,19.20
2017-09-17T17:11:48.534Z,19.10
2017-09-17T17:14:17.152Z,19.00
2017-09-17T17:16:45.092Z,19.00
2017-09-17T17:19:12.930Z,19.00
2017-09-17T17:21:40.763Z,19.00
2017-09-17T17:24:08.608Z,19.00
2017-09-17T17:26:36.481Z,19.00
2017-09-17T17:29:04.287Z,19.00
2017-09-17T17:31:32.017Z,18.90
2017-09-17T17:33:59.779Z,18.90
2017-09-17T17:36:27.627Z,18.90
2017-09-17T17:38:55.392Z,18.90
2017-09-17T17:41:23.230Z,18.90
2017-09-17T17:43:51.118Z,18.80
2017-09-17T17:46:18.839Z,18.80
2017-09-17T17:48:46.534Z,18.80
2017-09-17T17:51:14.149Z,18.70
2017-09-17T17:53:42.983Z,18.70
2017-09-17T17:56:11.453Z,18.70
2017-09-17T17:58:39.245Z,18.60
2017-09-17T18:01:06.903Z,18.60
2017-09-17T18:03:34.852Z,18.60
2017-09-17T18:06:02.483Z,18.60
2017-09-17T18:08:30.903Z,18.50
2017-09-17T18:10:58.552Z,18.50
2017-09-17T18:13:26.181Z,18.50
2017-09-17T18:15:54.706Z,18.40
2017-09-17T18:18:22.329Z,18.40
2017-09-17T18:20:50.749Z,18.40
2017-09-17T18:23:18.384Z,18.30
2017-09-17T18:25:46.045Z,18.30
2017-09-17T18:28:13.744Z,18.30
2017-09-17T18:30:41.356Z,18.20
2017-09-17T18:33:09.766Z,18.10
2017-09-17T18:35:37.396Z,18.10
2017-09-17T18:38:06.741Z,18.10
2017-09-17T18:40:34.521Z,18.00
2017-09-17T18:43:02.168Z,18.00
2017-09-17T18:45:29.851Z,18.00
2017-09-17T18:47:57.522Z,17.90
2017-09-17T18:50:30.840Z,17.90
2017-09-17T18:52:59.227Z,17.80
2017-09-17T18:55:27.649Z,17.70
2017-09-17T18:57:55.331Z,17.60
2017-09-17T19:00:24.650Z,17.50
2017-09-17T19:02:52.593Z,17.50
2017-09-17T19:05:20.472Z,17.50
2017-09-17T19:07:49.047Z,17.30
2017-09-17T19:10:16.916Z,17.30
2017-09-17T19:12:44.776Z,17.30
2017-09-17T19:15:12.752Z,17.30
2017-09-17T19:17:40.879Z,17.20
2017-09-17T19:20:08.690Z,17.20
2017-09-17T19:22:36.557Z,17.20
2017-09-17T19:25:04.430Z,17.20
2017-09-17T19:27:32.291Z,17.20
2017-09-17T19:30:00.154Z,17.10
2017-09-17T19:32:28.025Z,17.10
2017-09-17T19:34:56.007Z,17.10
2017-09-17T19:37:23.863Z,17.00
2017-09-17T19:39:51.654Z,17.10
2017-09-17T19:42:20.170Z,17.00
2017-09-17T19:44:47.934Z,17.00
2017-09-17T19:47:15.744Z,17.00
2017-09-17T19:49:43.495Z,17.00
2017-09-17T19:52:11.293Z,17.00
2017-09-17T19:54:39.825Z,17.00
2017-09-17T19:57:07.586Z,17.00
2017-09-17T19:59:35.390Z,17.00
2017-09-17T20:02:03.168Z,17.00
2017-09-17T20:04:31.761Z,16.90
2017-09-17T20:07:00.287Z,16.90
2017-09-17T20:09:28.068Z,16.80
2017-09-17T20:11:55.902Z,16.90
2017-09-17T20:14:23.678Z,16.90
2017-09-17T20:16:51.512Z,16.90
2017-09-17T20:19:19.281Z,16.80
2017-09-17T20:21:47.035Z,16.80
2017-09-17T20:24:15.612Z,16.80
2017-09-17T20:26:44.159Z,16.70
2017-09-17T20:29:12.056Z,16.70
2017-09-17T20:31:40.582Z,16.70
2017-09-17T20:34:08.336Z,16.60
2017-09-17T20:36:36.243Z,16.60
2017-09-17T20:39:04.518Z,16.60
2017-09-17T20:41:32.346Z,16.60
2017-09-17T20:44:00.090Z,16.60
2017-09-17T20:46:27.836Z,16.60
2017-09-17T20:48:56.398Z,16.50
2017-09-17T20:51:24.267Z,16.40
2017-09-17T20:53:52.116Z,16.40
2017-09-17T20:56:19.908Z,16.30
2017-09-17T20:58:47.532Z,16.30
2017-09-17T21:01:15.334Z,16.20
2017-09-17T21:03:43.097Z,16.10
2017-09-17T21:06:10.914Z,16.00
2017-09-17T21:08:38.688Z,16.00
2017-09-17T21:11:06.530Z,15.90
2017-09-17T21:13:34.305Z,15.90
2017-09-17T21:16:02.092Z,15.90
2017-09-17T21:18:29.906Z,15.90
2017-09-17T21:20:58.464Z,15.90
2017-09-17T21:23:26.293Z,15.80
2017-09-17T21:25:54.089Z,15.90
2017-09-17T21:28:21.867Z,15.80
2017-09-17T21:30:49.624Z,15.90
2017-09-17T21:33:17.493Z,15.80
2017-09-17T21:35:45.271Z,15.80
2017-09-17T21:38:13.824Z,15.80
2017-09-17T21:40:42.384Z,15.80
2017-09-17T21:43:11.019Z,15.70
2017-09-17T21:45:38.879Z,15.80
2017-09-17T21:48:06.637Z,15.70
2017-09-17T21:50:34.405Z,15.70
2017-09-17T21:53:02.198Z,15.70
2017-09-17T21:55:30.735Z,15.60
2017-09-17T21:57:58.564Z,15.60
2017-09-17T22:00:26.369Z,15.60
2017-09-17T22:02:54.872Z,15.60
2017-09-17T22:05:22.681Z,15.50
2017-09-17T22:07:50.437Z,15.60
2017-09-17T22:10:18.305Z,15.50
2017-09-17T22:12:46.082Z,15.50
2017-09-17T22:15:13.895Z,15.50
2017-09-17T22:17:41.646Z,15.50
2017-09-17T22:20:09.432Z,15.40
2017-09-17T22:22:37.996Z,15.40
2017-09-17T22:25:05.731Z,15.30
2017-09-17T22:27:33.471Z,15.30
2017-09-17T22:30:01.232Z,15.30
2017-09-17T22:32:29.025Z,15.30
2017-09-17T22:34:56.822Z,15.30
2017-09-17T22:37:24.599Z,15.20
2017-09-17T22:39:52.403Z,15.20
2017-09-17T22:42:20.168Z,15.20
2017-09-17T22:44:47.961Z,15.20
2017-09-17T22:47:15.721Z,15.10
2017-09-17T22:49:43.508Z,15.10
2017-09-17T22:52:11.300Z,15.10
2017-09-17T22:54:39.817Z,15.00
2017-09-17T22:57:07.651Z,15.00
2017-09-17T22:59:36.203Z,15.00
2017-09-17T23:02:03.990Z,14.90
2017-09-17T23:04:31.781Z,15.00
2017-09-17T23:06:59.603Z,14.90
2017-09-17T23:09:27.413Z,14.90
2017-09-17T23:11:55.159Z,14.90
2017-09-17T23:14:23.659Z,14.80
2017-09-17T23:16:51.455Z,14.80
2017-09-17T23:19:19.209Z,14.80
2017-09-17T23:21:46.998Z,14.70
2017-09-17T23:24:14.803Z,14.70
2017-09-17T23:26:43.211Z,14.70
2017-09-17T23:29:10.848Z,14.60
2017-09-17T23:31:38.472Z,14.60
2017-09-17T23:34:06.312Z,14.60
2017-09-17T23:36:33.958Z,14.60
2017-09-17T23:39:01.614Z,14.50
2017-09-17T23:41:29.238Z,14.50
2017-09-17T23:43:57.657Z,14.40
2017-09-17T23:46:25.295Z,14.40
2017-09-17T23:48:52.944Z,14.40
2017-09-17T23:51:21.396Z,14.30
2017-09-17T23:53:49.066Z,14.20
2017-09-17T23:56:17.520Z,14.30
2017-09-17T23:58:45.160Z,14.20
